sensor_id;sensor_type;location;lat;lon;timestamp;temperature;humidity
336;DHT22;156;48.738;9.228;2023-07-20T00:01:57;19.30;1.00
336;DHT22;156;48.738;9.228;2023-07-20T00:04:26;19.20;1.00
336;DHT22;156;48.738;9.228;2023-07-20T00:06:53;19.10;1.00
336;DHT22;156;48.738;9.228;2023-07-20T00:09:20;19.10;1.00
336;DHT22;156;48.738;9.228;2023-07-20T00:11:49;19.00;1.00
336;DHT22;156;48.738;9.228;2023-07-20T00:14:18;19.00;1.00
336;DHT22;156;48.738;9.228;2023-07-20T00:16:45;19.00;1.00
336;DHT22;156;48.738;9.228;2023-07-20T00:19:14;18.90;1.00
336;DHT22;156;48.738;9.228;2023-07-20T00:21:42;18.80;1.00
336;DHT22;156;48.738;9.228;2023-07-20T00:26:35;18.80;1.00
336;DHT22;156;48.738;9.228;2023-07-20T00:29:02;18.80;1.00
336;DHT22;156;48.738;9.228;2023-07-20T00:31:29;18.70;1.00
336;DHT22;156;48.738;9.228;2023-07-20T00:33:56;18.70;1.00
336;DHT22;156;48.738;9.228;2023-07-20T00:36:23;18.70;1.00
336;DHT22;156;48.738;9.228;2023-07-20T00:38:50;18.70;1.00
336;DHT22;156;48.738;9.228;2023-07-20T00:41:36;18.60;1.00
336;DHT22;156;48.738;9.228;2023-07-20T00:44:04;18.60;1.00
336;DHT22;156;48.738;9.228;2023-07-20T00:46:33;18.50;1.00
336;DHT22;156;48.738;9.228;2023-07-20T00:49:00;18.50;1.00
336;DHT22;156;48.738;9.228;2023-07-20T00:51:28;18.50;1.00
336;DHT22;156;48.738;9.228;2023-07-20T00:53:55;18.50;1.00
336;DHT22;156;48.738;9.228;2023-07-20T00:56:22;18.50;1.00
336;DHT22;156;48.738;9.228;2023-07-20T00:58:51;18.50;1.00
336;DHT22;156;48.738;9.228;2023-07-20T01:01:18;18.40;1.00
336;DHT22;156;48.738;9.228;2023-07-20T01:03:45;18.30;1.00
336;DHT22;156;48.738;9.228;2023-07-20T01:06:22;18.20;1.00
336;DHT22;156;48.738;9.228;2023-07-20T01:09:00;18.10;1.00
336;DHT22;156;48.738;9.228;2023-07-20T01:11:37;18.10;1.00
336;DHT22;156;48.738;9.228;2023-07-20T01:14:07;18.00;1.00
336;DHT22;156;48.738;9.228;2023-07-20T01:16:34;18.00;1.00
336;DHT22;156;48.738;9.228;2023-07-20T01:19:01;18.00;1.00
336;DHT22;156;48.738;9.228;2023-07-20T01:21:37;18.00;1.00
336;DHT22;156;48.738;9.228;2023-07-20T01:24:44;17.90;1.00
336;DHT22;156;48.738;9.228;2023-07-20T01:27:49;17.80;1.00
336;DHT22;156;48.738;9.228;2023-07-20T01:30:43;17.70;1.00
336;DHT22;156;48.738;9.228;2023-07-20T01:33:15;17.70;1.00
336;DHT22;156;48.738;9.228;2023-07-20T01:35:43;17.60;1.00
336;DHT22;156;48.738;9.228;2023-07-20T01:38:13;17.50;1.00
336;DHT22;156;48.738;9.228;2023-07-20T01:40:40;17.50;1.00
336;DHT22;156;48.738;9.228;2023-07-20T01:43:07;17.40;1.00
336;DHT22;156;48.738;9.228;2023-07-20T01:45:34;17.40;1.00
336;DHT22;156;48.738;9.228;2023-07-20T01:48:03;17.40;1.00
336;DHT22;156;48.738;9.228;2023-07-20T01:50:32;17.40;1.00
336;DHT22;156;48.738;9.228;2023-07-20T01:53:00;17.40;1.00
336;DHT22;156;48.738;9.228;2023-07-20T01:55:27;17.30;1.00
336;DHT22;156;48.738;9.228;2023-07-20T01:57:55;17.30;1.00
336;DHT22;156;48.738;9.228;2023-07-20T02:00:22;17.30;1.00
336;DHT22;156;48.738;9.228;2023-07-20T02:02:50;17.30;1.00
336;DHT22;156;48.738;9.228;2023-07-20T02:05:17;17.20;1.00
336;DHT22;156;48.738;9.228;2023-07-20T02:07:45;17.20;1.00
336;DHT22;156;48.738;9.228;2023-07-20T02:10:12;17.20;1.00
336;DHT22;156;48.738;9.228;2023-07-20T02:12:39;17.10;1.00
336;DHT22;156;48.738;9.228;2023-07-20T02:15:07;17.20;1.00
336;DHT22;156;48.738;9.228;2023-07-20T02:17:34;17.10;1.00
336;DHT22;156;48.738;9.228;2023-07-20T02:20:01;17.10;1.00
336;DHT22;156;48.738;9.228;2023-07-20T02:22:28;17.10;1.00
336;DHT22;156;48.738;9.228;2023-07-20T02:24:57;17.10;1.00
336;DHT22;156;48.738;9.228;2023-07-20T02:27:24;17.10;1.00
336;DHT22;156;48.738;9.228;2023-07-20T02:29:50;17.00;1.00
336;DHT22;156;48.738;9.228;2023-07-20T02:32:17;17.00;1.00
336;DHT22;156;48.738;9.228;2023-07-20T02:34:44;17.00;1.00
336;DHT22;156;48.738;9.228;2023-07-20T02:37:11;16.80;1.00
336;DHT22;156;48.738;9.228;2023-07-20T02:39:38;16.60;1.00
336;DHT22;156;48.738;9.228;2023-07-20T02:42:07;16.50;1.00
336;DHT22;156;48.738;9.228;2023-07-20T02:44:34;16.50;1.00
336;DHT22;156;48.738;9.228;2023-07-20T02:47:00;16.40;1.00
336;DHT22;156;48.738;9.228;2023-07-20T02:49:27;16.30;1.00
336;DHT22;156;48.738;9.228;2023-07-20T02:51:54;16.30;1.00
336;DHT22;156;48.738;9.228;2023-07-20T02:54:22;16.40;1.00
336;DHT22;156;48.738;9.228;2023-07-20T02:56:49;16.50;1.00
336;DHT22;156;48.738;9.228;2023-07-20T02:59:17;16.40;1.00
336;DHT22;156;48.738;9.228;2023-07-20T03:01:44;16.40;1.00
336;DHT22;156;48.738;9.228;2023-07-20T03:04:11;16.30;1.00
336;DHT22;156;48.738;9.228;2023-07-20T03:06:38;16.20;1.00
336;DHT22;156;48.738;9.228;2023-07-20T03:09:05;16.30;1.00
336;DHT22;156;48.738;9.228;2023-07-20T03:11:32;16.30;1.00
336;DHT22;156;48.738;9.228;2023-07-20T03:14:00;16.40;1.00
336;DHT22;156;48.738;9.228;2023-07-20T03:16:28;16.40;1.00
336;DHT22;156;48.738;9.228;2023-07-20T03:18:58;16.40;1.00
336;DHT22;156;48.738;9.228;2023-07-20T03:21:26;16.50;1.00
336;DHT22;156;48.738;9.228;2023-07-20T03:23:52;16.50;1.00
336;DHT22;156;48.738;9.228;2023-07-20T03:26:19;16.50;1.00
336;DHT22;156;48.738;9.228;2023-07-20T03:28:46;16.50;1.00
336;DHT22;156;48.738;9.228;2023-07-20T03:31:13;16.50;1.00
336;DHT22;156;48.738;9.228;2023-07-20T03:33:42;16.50;1.00
336;DHT22;156;48.738;9.228;2023-07-20T03:36:09;16.60;1.00
336;DHT22;156;48.738;9.228;2023-07-20T03:38:36;16.50;1.00
336;DHT22;156;48.738;9.228;2023-07-20T03:41:03;16.50;1.00
336;DHT22;156;48.738;9.228;2023-07-20T03:43:30;16.40;1.00
336;DHT22;156;48.738;9.228;2023-07-20T03:45:57;16.50;1.00
336;DHT22;156;48.738;9.228;2023-07-20T03:48:25;16.50;1.00
336;DHT22;156;48.738;9.228;2023-07-20T03:50:54;16.50;1.00
336;DHT22;156;48.738;9.228;2023-07-20T03:53:21;16.50;1.00
336;DHT22;156;48.738;9.228;2023-07-20T03:55:48;16.50;1.00
336;DHT22;156;48.738;9.228;2023-07-20T03:58:16;16.40;1.00
336;DHT22;156;48.738;9.228;2023-07-20T04:00:45;16.50;1.00
336;DHT22;156;48.738;9.228;2023-07-20T04:03:14;16.50;1.00
336;DHT22;156;48.738;9.228;2023-07-20T04:05:41;16.50;1.00
336;DHT22;156;48.738;9.228;2023-07-20T04:08:10;16.50;1.00
336;DHT22;156;48.738;9.228;2023-07-20T04:10:37;16.40;1.00
336;DHT22;156;48.738;9.228;2023-07-20T04:13:04;16.40;1.00
336;DHT22;156;48.738;9.228;2023-07-20T04:15:31;16.40;1.00
336;DHT22;156;48.738;9.228;2023-07-20T04:17:58;16.40;1.00
336;DHT22;156;48.738;9.228;2023-07-20T04:20:26;16.40;1.00
336;DHT22;156;48.738;9.228;2023-07-20T04:22:53;16.30;1.00
336;DHT22;156;48.738;9.228;2023-07-20T04:25:21;16.40;1.00
336;DHT22;156;48.738;9.228;2023-07-20T04:27:48;16.40;1.00
336;DHT22;156;48.738;9.228;2023-07-20T04:30:17;16.40;1.00
336;DHT22;156;48.738;9.228;2023-07-20T04:32:48;16.40;1.00
336;DHT22;156;48.738;9.228;2023-07-20T04:35:25;16.40;1.00
336;DHT22;156;48.738;9.228;2023-07-20T04:38:04;16.40;1.00
336;DHT22;156;48.738;9.228;2023-07-20T04:40:33;16.40;1.00
336;DHT22;156;48.738;9.228;2023-07-20T04:43:00;16.40;1.00
336;DHT22;156;48.738;9.228;2023-07-20T04:45:26;16.40;1.00
336;DHT22;156;48.738;9.228;2023-07-20T04:47:55;16.50;1.00
336;DHT22;156;48.738;9.228;2023-07-20T04:50:22;16.70;1.00
336;DHT22;156;48.738;9.228;2023-07-20T04:52:51;16.80;1.00
336;DHT22;156;48.738;9.228;2023-07-20T04:55:18;16.80;1.00
336;DHT22;156;48.738;9.228;2023-07-20T04:57:47;16.80;1.00
336;DHT22;156;48.738;9.228;2023-07-20T05:00:14;16.90;1.00
336;DHT22;156;48.738;9.228;2023-07-20T05:02:41;16.90;1.00
336;DHT22;156;48.738;9.228;2023-07-20T05:05:08;16.90;1.00
336;DHT22;156;48.738;9.228;2023-07-20T05:07:35;17.00;1.00
336;DHT22;156;48.738;9.228;2023-07-20T05:10:02;17.10;1.00
336;DHT22;156;48.738;9.228;2023-07-20T05:12:29;17.20;1.00
336;DHT22;156;48.738;9.228;2023-07-20T05:14:57;17.20;1.00
336;DHT22;156;48.738;9.228;2023-07-20T05:17:24;17.30;1.00
336;DHT22;156;48.738;9.228;2023-07-20T05:20:07;17.40;1.00
336;DHT22;156;48.738;9.228;2023-07-20T05:22:35;17.50;1.00
336;DHT22;156;48.738;9.228;2023-07-20T05:25:06;17.50;1.00
336;DHT22;156;48.738;9.228;2023-07-20T05:27:39;17.70;1.00
336;DHT22;156;48.738;9.228;2023-07-20T05:30:08;17.80;1.00
336;DHT22;156;48.738;9.228;2023-07-20T05:32:35;17.90;1.00
336;DHT22;156;48.738;9.228;2023-07-20T05:35:03;18.00;1.00
336;DHT22;156;48.738;9.228;2023-07-20T05:37:30;18.00;1.00
336;DHT22;156;48.738;9.228;2023-07-20T05:40:00;18.10;1.00
336;DHT22;156;48.738;9.228;2023-07-20T05:42:27;18.20;1.00
336;DHT22;156;48.738;9.228;2023-07-20T05:44:54;17.90;1.00
336;DHT22;156;48.738;9.228;2023-07-20T05:47:22;18.40;1.00
336;DHT22;156;48.738;9.228;2023-07-20T05:49:49;18.30;1.00
336;DHT22;156;48.738;9.228;2023-07-20T05:52:16;18.40;1.00
336;DHT22;156;48.738;9.228;2023-07-20T05:54:43;18.40;1.00
336;DHT22;156;48.738;9.228;2023-07-20T05:57:12;18.50;1.00
336;DHT22;156;48.738;9.228;2023-07-20T05:59:39;18.40;1.00
336;DHT22;156;48.738;9.228;2023-07-20T06:02:11;18.30;1.00
336;DHT22;156;48.738;9.228;2023-07-20T06:04:40;18.40;1.00
336;DHT22;156;48.738;9.228;2023-07-20T06:07:07;18.50;1.00
336;DHT22;156;48.738;9.228;2023-07-20T06:09:34;18.60;1.00
336;DHT22;156;48.738;9.228;2023-07-20T06:12:05;18.60;1.00
336;DHT22;156;48.738;9.228;2023-07-20T06:14:35;18.70;1.00
336;DHT22;156;48.738;9.228;2023-07-20T06:17:06;18.80;1.00
336;DHT22;156;48.738;9.228;2023-07-20T06:19:33;18.70;1.00
336;DHT22;156;48.738;9.228;2023-07-20T06:22:01;18.80;1.00
336;DHT22;156;48.738;9.228;2023-07-20T06:24:33;18.70;1.00
336;DHT22;156;48.738;9.228;2023-07-20T06:27:02;18.80;1.00
336;DHT22;156;48.738;9.228;2023-07-20T06:29:31;18.90;1.00
336;DHT22;156;48.738;9.228;2023-07-20T06:31:58;19.10;1.00
336;DHT22;156;48.738;9.228;2023-07-20T06:34:26;19.10;1.00
336;DHT22;156;48.738;9.228;2023-07-20T06:36:55;19.00;1.00
336;DHT22;156;48.738;9.228;2023-07-20T06:39:23;19.10;1.00
336;DHT22;156;48.738;9.228;2023-07-20T06:41:53;19.20;1.00
336;DHT22;156;48.738;9.228;2023-07-20T06:44:21;19.10;1.00
336;DHT22;156;48.738;9.228;2023-07-20T06:46:48;19.10;1.00
336;DHT22;156;48.738;9.228;2023-07-20T06:49:24;19.20;1.00
336;DHT22;156;48.738;9.228;2023-07-20T06:51:52;19.30;1.00
336;DHT22;156;48.738;9.228;2023-07-20T06:54:18;19.40;1.00
336;DHT22;156;48.738;9.228;2023-07-20T06:56:48;19.50;1.00
336;DHT22;156;48.738;9.228;2023-07-20T06:59:17;19.50;1.00
336;DHT22;156;48.738;9.228;2023-07-20T07:01:44;19.30;1.00
336;DHT22;156;48.738;9.228;2023-07-20T07:04:11;19.10;1.00
336;DHT22;156;48.738;9.228;2023-07-20T07:06:38;19.20;1.00
336;DHT22;156;48.738;9.228;2023-07-20T07:09:05;19.30;1.00
336;DHT22;156;48.738;9.228;2023-07-20T07:11:33;19.20;1.00
336;DHT22;156;48.738;9.228;2023-07-20T07:14:02;19.20;1.00
336;DHT22;156;48.738;9.228;2023-07-20T07:16:30;19.10;1.00
336;DHT22;156;48.738;9.228;2023-07-20T07:18:57;19.10;1.00
336;DHT22;156;48.738;9.228;2023-07-20T07:21:25;19.10;1.00
336;DHT22;156;48.738;9.228;2023-07-20T07:23:52;19.20;1.00
336;DHT22;156;48.738;9.228;2023-07-20T07:26:25;19.10;1.00
336;DHT22;156;48.738;9.228;2023-07-20T07:28:52;19.00;1.00
336;DHT22;156;48.738;9.228;2023-07-20T07:31:22;19.00;1.00
336;DHT22;156;48.738;9.228;2023-07-20T07:33:49;18.90;1.00
336;DHT22;156;48.738;9.228;2023-07-20T07:36:19;18.90;1.00
336;DHT22;156;48.738;9.228;2023-07-20T07:38:46;18.90;1.00
336;DHT22;156;48.738;9.228;2023-07-20T07:41:14;19.00;1.00
336;DHT22;156;48.738;9.228;2023-07-20T07:43:41;19.20;1.00
336;DHT22;156;48.738;9.228;2023-07-20T07:46:11;19.30;1.00
336;DHT22;156;48.738;9.228;2023-07-20T07:48:43;19.30;1.00
336;DHT22;156;48.738;9.228;2023-07-20T07:51:10;19.30;1.00
336;DHT22;156;48.738;9.228;2023-07-20T07:53:39;19.10;1.00
336;DHT22;156;48.738;9.228;2023-07-20T07:56:07;19.30;1.00
336;DHT22;156;48.738;9.228;2023-07-20T07:58:35;19.30;1.00
336;DHT22;156;48.738;9.228;2023-07-20T08:01:01;19.40;1.00
336;DHT22;156;48.738;9.228;2023-07-20T08:03:28;19.50;1.00
336;DHT22;156;48.738;9.228;2023-07-20T08:05:57;19.60;1.00
336;DHT22;156;48.738;9.228;2023-07-20T08:08:24;19.90;1.00
336;DHT22;156;48.738;9.228;2023-07-20T08:10:53;19.90;1.00
336;DHT22;156;48.738;9.228;2023-07-20T08:13:21;20.00;1.00
336;DHT22;156;48.738;9.228;2023-07-20T08:15:50;20.10;1.00
336;DHT22;156;48.738;9.228;2023-07-20T08:18:19;20.30;1.00
336;DHT22;156;48.738;9.228;2023-07-20T08:20:47;20.40;1.00
336;DHT22;156;48.738;9.228;2023-07-20T08:23:16;20.50;1.00
336;DHT22;156;48.738;9.228;2023-07-20T08:25:46;20.60;1.00
336;DHT22;156;48.738;9.228;2023-07-20T08:28:16;20.70;1.00
336;DHT22;156;48.738;9.228;2023-07-20T08:30:44;20.50;1.00
336;DHT22;156;48.738;9.228;2023-07-20T08:33:13;20.60;1.00
336;DHT22;156;48.738;9.228;2023-07-20T08:35:40;20.60;1.00
336;DHT22;156;48.738;9.228;2023-07-20T08:38:07;20.50;1.00
336;DHT22;156;48.738;9.228;2023-07-20T08:40:40;20.30;1.00
336;DHT22;156;48.738;9.228;2023-07-20T08:43:07;20.30;1.00
336;DHT22;156;48.738;9.228;2023-07-20T08:45:38;20.40;1.00
336;DHT22;156;48.738;9.228;2023-07-20T08:48:06;20.60;1.00
336;DHT22;156;48.738;9.228;2023-07-20T08:50:34;20.80;1.00
336;DHT22;156;48.738;9.228;2023-07-20T08:53:02;21.10;1.00
336;DHT22;156;48.738;9.228;2023-07-20T08:55:30;21.20;1.00
336;DHT22;156;48.738;9.228;2023-07-20T08:58:05;20.90;1.00
336;DHT22;156;48.738;9.228;2023-07-20T09:00:35;20.70;1.00
336;DHT22;156;48.738;9.228;2023-07-20T09:03:04;20.80;1.00
336;DHT22;156;48.738;9.228;2023-07-20T09:05:33;20.70;1.00
336;DHT22;156;48.738;9.228;2023-07-20T09:08:01;20.40;1.00
336;DHT22;156;48.738;9.228;2023-07-20T09:10:33;20.30;1.00
336;DHT22;156;48.738;9.228;2023-07-20T09:13:00;20.30;1.00
336;DHT22;156;48.738;9.228;2023-07-20T09:15:29;20.50;1.00
336;DHT22;156;48.738;9.228;2023-07-20T09:17:58;20.60;1.00
336;DHT22;156;48.738;9.228;2023-07-20T09:20:33;20.60;1.00
336;DHT22;156;48.738;9.228;2023-07-20T09:23:07;21.10;1.00
336;DHT22;156;48.738;9.228;2023-07-20T09:25:38;21.20;1.00
336;DHT22;156;48.738;9.228;2023-07-20T09:28:05;21.40;1.00
336;DHT22;156;48.738;9.228;2023-07-20T09:30:40;21.40;1.00
336;DHT22;156;48.738;9.228;2023-07-20T09:33:18;21.10;1.00
336;DHT22;156;48.738;9.228;2023-07-20T09:35:50;21.10;1.00
336;DHT22;156;48.738;9.228;2023-07-20T09:38:20;21.20;1.00
336;DHT22;156;48.738;9.228;2023-07-20T09:40:48;21.20;1.00
336;DHT22;156;48.738;9.228;2023-07-20T09:43:17;21.30;1.00
336;DHT22;156;48.738;9.228;2023-07-20T09:45:50;21.70;1.00
336;DHT22;156;48.738;9.228;2023-07-20T09:48:27;21.50;1.00
336;DHT22;156;48.738;9.228;2023-07-20T09:50:57;21.60;1.00
336;DHT22;156;48.738;9.228;2023-07-20T09:53:25;21.70;1.00
336;DHT22;156;48.738;9.228;2023-07-20T09:56:02;21.90;1.00
336;DHT22;156;48.738;9.228;2023-07-20T09:58:39;21.80;1.00
336;DHT22;156;48.738;9.228;2023-07-20T10:01:10;21.50;1.00
336;DHT22;156;48.738;9.228;2023-07-20T10:03:43;21.30;1.00
336;DHT22;156;48.738;9.228;2023-07-20T10:06:15;21.20;1.00
336;DHT22;156;48.738;9.228;2023-07-20T10:08:55;21.30;1.00
336;DHT22;156;48.738;9.228;2023-07-20T10:11:24;21.50;1.00
336;DHT22;156;48.738;9.228;2023-07-20T10:14:00;21.60;1.00
336;DHT22;156;48.738;9.228;2023-07-20T10:16:35;21.90;1.00
336;DHT22;156;48.738;9.228;2023-07-20T10:19:10;22.10;1.00
336;DHT22;156;48.738;9.228;2023-07-20T10:21:42;22.20;1.00
336;DHT22;156;48.738;9.228;2023-07-20T10:24:18;22.30;1.00
336;DHT22;156;48.738;9.228;2023-07-20T10:26:50;21.00;1.00
336;DHT22;156;48.738;9.228;2023-07-20T10:29:18;22.60;1.00
336;DHT22;156;48.738;9.228;2023-07-20T10:31:51;22.30;1.00
336;DHT22;156;48.738;9.228;2023-07-20T10:34:21;22.00;1.00
336;DHT22;156;48.738;9.228;2023-07-20T10:36:51;22.10;1.00
336;DHT22;156;48.738;9.228;2023-07-20T10:39:25;22.10;1.00
336;DHT22;156;48.738;9.228;2023-07-20T10:42:00;22.00;1.00
336;DHT22;156;48.738;9.228;2023-07-20T10:44:30;21.20;1.00
336;DHT22;156;48.738;9.228;2023-07-20T10:47:11;21.80;1.00
336;DHT22;156;48.738;9.228;2023-07-20T10:49:57;21.60;1.00
336;DHT22;156;48.738;9.228;2023-07-20T10:52:25;22.00;1.00
336;DHT22;156;48.738;9.228;2023-07-20T10:54:53;22.30;1.00
336;DHT22;156;48.738;9.228;2023-07-20T10:57:28;22.30;1.00
336;DHT22;156;48.738;9.228;2023-07-20T11:00:10;22.40;1.00
336;DHT22;156;48.738;9.228;2023-07-20T11:02:47;22.30;1.00
336;DHT22;156;48.738;9.228;2023-07-20T11:05:38;22.40;1.00
336;DHT22;156;48.738;9.228;2023-07-20T11:08:10;22.30;1.00
336;DHT22;156;48.738;9.228;2023-07-20T11:10:38;22.30;1.00
336;DHT22;156;48.738;9.228;2023-07-20T11:13:19;22.10;1.00
336;DHT22;156;48.738;9.228;2023-07-20T11:16:04;21.90;1.00
336;DHT22;156;48.738;9.228;2023-07-20T11:18:35;21.90;1.00
336;DHT22;156;48.738;9.228;2023-07-20T11:21:14;22.10;1.00
336;DHT22;156;48.738;9.228;2023-07-20T11:23:43;22.50;1.00
336;DHT22;156;48.738;9.228;2023-07-20T11:26:12;22.70;1.00
336;DHT22;156;48.738;9.228;2023-07-20T11:28:39;22.90;1.00
336;DHT22;156;48.738;9.228;2023-07-20T11:31:22;22.80;1.00
336;DHT22;156;48.738;9.228;2023-07-20T11:33:53;22.60;1.00
336;DHT22;156;48.738;9.228;2023-07-20T11:36:21;23.10;1.00
336;DHT22;156;48.738;9.228;2023-07-20T11:38:48;23.20;1.00
336;DHT22;156;48.738;9.228;2023-07-20T11:41:15;23.30;1.00
336;DHT22;156;48.738;9.228;2023-07-20T11:43:46;23.10;1.00
336;DHT22;156;48.738;9.228;2023-07-20T11:46:14;23.20;1.00
336;DHT22;156;48.738;9.228;2023-07-20T11:48:41;22.90;1.00
336;DHT22;156;48.738;9.228;2023-07-20T11:51:15;22.80;1.00
336;DHT22;156;48.738;9.228;2023-07-20T11:53:44;22.70;1.00
336;DHT22;156;48.738;9.228;2023-07-20T11:56:14;22.80;1.00
336;DHT22;156;48.738;9.228;2023-07-20T11:58:47;23.10;1.00
336;DHT22;156;48.738;9.228;2023-07-20T12:01:17;23.40;1.00
336;DHT22;156;48.738;9.228;2023-07-20T12:03:48;23.50;1.00
336;DHT22;156;48.738;9.228;2023-07-20T12:06:17;23.60;1.00
336;DHT22;156;48.738;9.228;2023-07-20T12:08:44;23.80;1.00
336;DHT22;156;48.738;9.228;2023-07-20T12:11:12;23.50;1.00
336;DHT22;156;48.738;9.228;2023-07-20T12:13:41;23.30;1.00
336;DHT22;156;48.738;9.228;2023-07-20T12:16:11;22.90;1.00
336;DHT22;156;48.738;9.228;2023-07-20T12:18:39;22.80;1.00
336;DHT22;156;48.738;9.228;2023-07-20T12:21:08;22.90;1.00
336;DHT22;156;48.738;9.228;2023-07-20T12:23:42;23.20;1.00
336;DHT22;156;48.738;9.228;2023-07-20T12:26:10;23.60;1.00
336;DHT22;156;48.738;9.228;2023-07-20T12:28:40;23.70;1.00
336;DHT22;156;48.738;9.228;2023-07-20T12:31:09;23.90;1.00
336;DHT22;156;48.738;9.228;2023-07-20T12:33:45;23.70;1.00
336;DHT22;156;48.738;9.228;2023-07-20T12:36:15;23.90;1.00
336;DHT22;156;48.738;9.228;2023-07-20T12:38:48;23.90;1.00
336;DHT22;156;48.738;9.228;2023-07-20T12:41:16;24.40;1.00
336;DHT22;156;48.738;9.228;2023-07-20T12:46:38;24.90;1.00
336;DHT22;156;48.738;9.228;2023-07-20T12:49:49;24.80;1.00
336;DHT22;156;48.738;9.228;2023-07-20T12:52:55;24.90;1.00
336;DHT22;156;48.738;9.228;2023-07-20T12:55:39;25.30;1.00
336;DHT22;156;48.738;9.228;2023-07-20T12:58:07;25.20;1.00
336;DHT22;156;48.738;9.228;2023-07-20T13:00:37;25.40;1.00
336;DHT22;156;48.738;9.228;2023-07-20T13:03:14;26.20;1.00
336;DHT22;156;48.738;9.228;2023-07-20T13:05:42;26.20;1.00
336;DHT22;156;48.738;9.228;2023-07-20T13:08:13;26.00;1.00
336;DHT22;156;48.738;9.228;2023-07-20T13:10:54;26.30;1.00
336;DHT22;156;48.738;9.228;2023-07-20T13:13:28;25.80;1.00
336;DHT22;156;48.738;9.228;2023-07-20T13:16:00;26.00;1.00
336;DHT22;156;48.738;9.228;2023-07-20T13:18:28;26.40;1.00
336;DHT22;156;48.738;9.228;2023-07-20T13:21:00;26.40;1.00
336;DHT22;156;48.738;9.228;2023-07-20T13:23:36;25.90;1.00
336;DHT22;156;48.738;9.228;2023-07-20T13:26:08;25.30;1.00
336;DHT22;156;48.738;9.228;2023-07-20T13:28:50;24.80;1.00
336;DHT22;156;48.738;9.228;2023-07-20T13:31:23;24.90;1.00
336;DHT22;156;48.738;9.228;2023-07-20T13:34:00;25.50;1.00
336;DHT22;156;48.738;9.228;2023-07-20T13:36:33;26.00;1.00
336;DHT22;156;48.738;9.228;2023-07-20T13:39:06;26.30;1.00
336;DHT22;156;48.738;9.228;2023-07-20T13:41:51;26.60;1.00
336;DHT22;156;48.738;9.228;2023-07-20T13:44:23;26.50;1.00
336;DHT22;156;48.738;9.228;2023-07-20T13:46:52;26.50;1.00
336;DHT22;156;48.738;9.228;2023-07-20T13:49:19;26.10;1.00
336;DHT22;156;48.738;9.228;2023-07-20T13:51:51;26.00;1.00
336;DHT22;156;48.738;9.228;2023-07-20T13:54:24;26.50;1.00
336;DHT22;156;48.738;9.228;2023-07-20T13:56:53;26.10;1.00
336;DHT22;156;48.738;9.228;2023-07-20T13:59:24;25.70;1.00
336;DHT22;156;48.738;9.228;2023-07-20T14:01:52;26.70;1.00
336;DHT22;156;48.738;9.228;2023-07-20T14:04:23;27.60;1.00
336;DHT22;156;48.738;9.228;2023-07-20T14:07:03;26.60;1.00
336;DHT22;156;48.738;9.228;2023-07-20T14:09:36;26.40;1.00
336;DHT22;156;48.738;9.228;2023-07-20T14:12:07;26.50;1.00
336;DHT22;156;48.738;9.228;2023-07-20T14:14:37;26.40;1.00
336;DHT22;156;48.738;9.228;2023-07-20T14:17:06;26.50;1.00
336;DHT22;156;48.738;9.228;2023-07-20T14:19:37;26.30;1.00
336;DHT22;156;48.738;9.228;2023-07-20T14:22:05;25.60;1.00
336;DHT22;156;48.738;9.228;2023-07-20T14:24:33;26.70;1.00
336;DHT22;156;48.738;9.228;2023-07-20T14:27:07;26.20;1.00
336;DHT22;156;48.738;9.228;2023-07-20T14:29:36;26.60;1.00
336;DHT22;156;48.738;9.228;2023-07-20T14:32:07;26.50;1.00
336;DHT22;156;48.738;9.228;2023-07-20T14:34:58;26.20;1.00
336;DHT22;156;48.738;9.228;2023-07-20T14:37:34;26.30;1.00
336;DHT22;156;48.738;9.228;2023-07-20T14:40:08;26.80;1.00
336;DHT22;156;48.738;9.228;2023-07-20T14:42:38;26.70;1.00
336;DHT22;156;48.738;9.228;2023-07-20T14:45:12;26.50;1.00
336;DHT22;156;48.738;9.228;2023-07-20T14:47:41;26.30;1.00
336;DHT22;156;48.738;9.228;2023-07-20T14:50:12;26.30;1.00
336;DHT22;156;48.738;9.228;2023-07-20T14:52:53;26.20;1.00
336;DHT22;156;48.738;9.228;2023-07-20T14:55:20;26.30;1.00
336;DHT22;156;48.738;9.228;2023-07-20T14:57:51;26.10;1.00
336;DHT22;156;48.738;9.228;2023-07-20T15:00:22;26.10;1.00
336;DHT22;156;48.738;9.228;2023-07-20T15:02:51;27.30;1.00
336;DHT22;156;48.738;9.228;2023-07-20T15:05:21;26.30;1.00
336;DHT22;156;48.738;9.228;2023-07-20T15:07:49;26.70;1.00
336;DHT22;156;48.738;9.228;2023-07-20T15:10:17;27.30;1.00
336;DHT22;156;48.738;9.228;2023-07-20T15:12:47;27.90;1.00
336;DHT22;156;48.738;9.228;2023-07-20T15:15:17;27.10;1.00
336;DHT22;156;48.738;9.228;2023-07-20T15:17:46;26.70;1.00
336;DHT22;156;48.738;9.228;2023-07-20T15:20:20;27.20;1.00
336;DHT22;156;48.738;9.228;2023-07-20T15:22:48;27.30;1.00
336;DHT22;156;48.738;9.228;2023-07-20T15:25:26;27.00;1.00
336;DHT22;156;48.738;9.228;2023-07-20T15:28:02;27.40;1.00
336;DHT22;156;48.738;9.228;2023-07-20T15:30:30;27.60;1.00
336;DHT22;156;48.738;9.228;2023-07-20T15:32:57;27.90;1.00
336;DHT22;156;48.738;9.228;2023-07-20T15:35:24;27.60;1.00
336;DHT22;156;48.738;9.228;2023-07-20T15:37:51;27.40;1.00
336;DHT22;156;48.738;9.228;2023-07-20T15:40:19;27.80;1.00
336;DHT22;156;48.738;9.228;2023-07-20T15:42:47;28.10;1.00
336;DHT22;156;48.738;9.228;2023-07-20T15:45:15;28.40;1.00
336;DHT22;156;48.738;9.228;2023-07-20T15:47:45;28.50;1.00
336;DHT22;156;48.738;9.228;2023-07-20T15:50:14;28.20;1.00
336;DHT22;156;48.738;9.228;2023-07-20T15:52:41;27.90;1.00
336;DHT22;156;48.738;9.228;2023-07-20T15:55:16;27.80;1.00
336;DHT22;156;48.738;9.228;2023-07-20T15:57:43;28.10;1.00
336;DHT22;156;48.738;9.228;2023-07-20T16:00:10;28.30;1.00
336;DHT22;156;48.738;9.228;2023-07-20T16:02:37;28.30;1.00
336;DHT22;156;48.738;9.228;2023-07-20T16:05:06;27.80;1.00
336;DHT22;156;48.738;9.228;2023-07-20T16:07:33;28.10;1.00
336;DHT22;156;48.738;9.228;2023-07-20T16:10:03;28.00;1.00
336;DHT22;156;48.738;9.228;2023-07-20T16:12:33;27.10;1.00
336;DHT22;156;48.738;9.228;2023-07-20T16:15:05;26.90;1.00
336;DHT22;156;48.738;9.228;2023-07-20T16:17:37;26.80;1.00
336;DHT22;156;48.738;9.228;2023-07-20T16:20:06;27.00;1.00
336;DHT22;156;48.738;9.228;2023-07-20T16:22:36;27.20;1.00
336;DHT22;156;48.738;9.228;2023-07-20T16:25:04;27.20;1.00
336;DHT22;156;48.738;9.228;2023-07-20T16:27:31;27.10;1.00
336;DHT22;156;48.738;9.228;2023-07-20T16:29:57;27.30;1.00
336;DHT22;156;48.738;9.228;2023-07-20T16:32:26;27.40;1.00
336;DHT22;156;48.738;9.228;2023-07-20T16:34:55;27.90;1.00
336;DHT22;156;48.738;9.228;2023-07-20T16:37:23;27.90;1.00
336;DHT22;156;48.738;9.228;2023-07-20T16:39:59;27.70;1.00
336;DHT22;156;48.738;9.228;2023-07-20T16:42:30;27.40;1.00
336;DHT22;156;48.738;9.228;2023-07-20T16:45:01;26.80;1.00
336;DHT22;156;48.738;9.228;2023-07-20T16:47:36;27.00;1.00
336;DHT22;156;48.738;9.228;2023-07-20T16:50:07;27.10;1.00
336;DHT22;156;48.738;9.228;2023-07-20T16:52:37;26.80;1.00
336;DHT22;156;48.738;9.228;2023-07-20T16:55:05;26.50;1.00
336;DHT22;156;48.738;9.228;2023-07-20T16:57:37;25.90;1.00
336;DHT22;156;48.738;9.228;2023-07-20T17:00:06;25.50;1.00
336;DHT22;156;48.738;9.228;2023-07-20T17:02:36;25.40;1.00
336;DHT22;156;48.738;9.228;2023-07-20T17:05:06;25.30;1.00
336;DHT22;156;48.738;9.228;2023-07-20T17:07:41;25.00;1.00
336;DHT22;156;48.738;9.228;2023-07-20T17:10:10;24.90;1.00
336;DHT22;156;48.738;9.228;2023-07-20T17:12:38;24.80;1.00
336;DHT22;156;48.738;9.228;2023-07-20T17:15:10;24.70;1.00
336;DHT22;156;48.738;9.228;2023-07-20T17:17:43;24.60;1.00